Flight Track Log - Related Links

Times and Time Zones

All times are in EDT time to prevent confusion due to time zone crossing. See the DAL268 flight status page for this flight to view local times or setup timezone preferences in your user account.

Time Position Orientation Groundspeed Altitude Reporting Facility
EDT Latitude Longitude Course Direction KTS MPH feet Rate Location/Type
Sat 11:49:14 PM 40.6370 -73.7800 264° West  Level FlightAware ADS-B
Sat 11:53:18 PM 40.6370 -73.7790 90° East 2 2 37 Level FlightAware ADS-B
Sat 11:54:02 PM 40.6380 -73.7790 360° North 2 2 45 Level FlightAware ADS-B
Sat 11:56:00 PM 40.8888 -73.6367 24° Northeast  Level FlightAware Approximate
Sat 11:57:00 PM 41.0169 -73.5665 27° Northeast  Level FlightAware Approximate
Sat 11:58:00 PM 41.1409 -73.4839 27° Northeast  Level FlightAware Approximate
Sat 11:59:00 PM 41.2712 -73.4228 21° North  Level FlightAware Approximate
Sat 11:59:44 PM 40.6370 -73.7790 21° North 13 15  Level FlightAware ADS-B
Sun 12:00:46 AM 40.6360 -73.7790 180° South 71 Level FlightAware ADS-B
Sun 12:02:42 AM 40.6350 -73.7780 143° Southeast 20 23 78 Level FlightAware ADS-B
Sun 12:03:14 AM 40.6360 -73.7770 37° Northeast 22 25 96 Level FlightAware ADS-B
Sun 12:03:43 AM 40.6370 -73.7760 37° Northeast 26 30 103 Level FlightAware ADS-B
Sun 12:04:10 AM 40.6380 -73.7750 37° Northeast 30 35 110 Level FlightAware ADS-B
Sun 12:04:39 AM 40.6400 -73.7740 21° North 31 36 117 Level FlightAware ADS-B
Sun 12:05:06 AM 40.6410 -73.7720 57° Northeast 15 17 126 Level FlightAware ADS-B
Sun 12:05:35 AM 40.6430 -73.7710 21° North 30 35 136 Level FlightAware ADS-B
Sun 12:06:02 AM 40.6440 -73.7700 37° Northeast 27 31 148 Level FlightAware ADS-B
Sun 12:06:31 AM 40.6450 -73.7690 37° Northeast 29 33 161 Level FlightAware ADS-B
Sun 12:06:46 AM 40.6460 -73.7690 360° North 30 35 178 Level FlightAware ADS-B
Sun 12:07:23 AM 40.6480 -73.7690 360° North 26 30 189 Level FlightAware ADS-B
Sun 12:07:50 AM 40.6490 -73.7670 57° Northeast 20 23 221 Level FlightAware ADS-B
Sun 12:08:30 AM 40.6490 -73.7660 90° East 17 20 253 Level FlightAware ADS-B
Sun 12:09:06 AM 40.6490 -73.7650 90° East 19 22 320 Level FlightAware ADS-B
Sun 12:09:26 AM 40.6480 -73.7650 180° South 14 16 421 Level FlightAware ADS-B
Sun 12:10:28 AM 40.6270 -73.7810 210° Southwest 179 206 511 Level FlightAware ADS-B
Sun 12:11:00 AM 40.6040 -73.7990 211° Southwest 179 206 800 1,412 Climbing FlightAware ADS-B
Sun 12:11:19 AM 40.5900 -73.8060 201° Southwest 193 222 1,200 1,174 Climbing FlightAware ADS-B
Sun 12:11:46 AM 40.5650 -73.7910 155° Southeast 233 268 1,700 1,024 Climbing FlightAware ADS-B
Sun 12:12:00 AM 40.5560 -73.7730 123° Southeast 247 284 1,900 1,000 Climbing FlightAware ADS-B
Sun 12:12:16 AM 40.5520 -73.7480 102° East 263 303 2,200 1,227 Climbing FlightAware ADS-B
Sun 12:12:44 AM 40.5610 -73.7030 75° East 287 330 2,800 1,154 Climbing FlightAware ADS-B
Sun 12:13:08 AM 40.5810 -73.6680 53° Northeast 306 352 3,200 1,692 Climbing FlightAware ADS-B
Sun 12:13:23 AM 40.5963 -73.6498 42° Northeast 304 350 3,900 2,600 Climbing FlightAware ADS-B
Sun 12:13:38 AM 40.6137 -73.6326 37° Northeast 305 351 4,500 2,143 Climbing FlightAware ADS-B
Sun 12:14:05 AM 40.6443 -73.6000 39° Northeast 309 356 5,400 2,073 Climbing FlightAware ADS-B
Sun 12:14:33 AM 40.6788 -73.5723 31° Northeast 313 360 6,400 2,129 Climbing FlightAware ADS-B
Sun 12:14:36 AM 40.6831 -73.5701 21° North 320 368 6,500 2,500 Climbing FlightAware ADS-B
Sun 12:14:45 AM 40.6956 -73.5641 20° North 320 368 6,900 2,609 Climbing FlightAware ADS-B
Sun 12:14:59 AM 40.7152 -73.5569 16° North 317 365 7,500 2,108 Climbing FlightAware ADS-B
Sun 12:15:22 AM 40.7486 -73.5466 13° North 324 373 8,200 1,811 Climbing FlightAware ADS-B
Sun 12:15:52 AM 40.7810 -73.5360 14° North 325 374 9,100 2,000 Climbing FlightAware ADS-B
Sun 12:16:22 AM 40.8366 -73.5189 13° North 325 374 10,200 1,672 Climbing FlightAware ADS-B
Sun 12:16:53 AM 40.8854 -73.5040 13° North 339 390 10,800 1,182 Climbing FlightAware ADS-B
Sun 12:17:28 AM 40.9450 -73.4851 13° North 381 438 11,500 1,164 Climbing FlightAware ADS-B
Sun 12:18:00 AM 41.0014 -73.4669 14° North 405 466 12,100 1,352 Climbing FlightAware ADS-B
Sun 12:18:39 AM 41.0720 -73.4450 13° North 419 482 13,100 1,875 Climbing FlightAware ADS-B
Sun 12:19:20 AM 41.1520 -73.4190 14° North 428 493 14,600 2,127 Climbing FlightAware ADS-B
Sun 12:19:58 AM 41.2250 -73.3960 13° North 435 501 15,900 2,104 Climbing FlightAware ADS-B
Sun 12:20:37 AM 41.3041 -73.3699 14° North 441 507 17,300 2,073 Climbing FlightAware ADS-B
Sun 12:20:53 AM 41.3334 -73.3519 25° Northeast 443 510 17,800 1,826 Climbing FlightAware ADS-B
Sun 12:21:23 AM 41.3862 -73.3069 33° Northeast 451 519 18,700 1,791 Climbing FlightAware ADS-B
Sun 12:22:00 AM 41.4490 -73.2560 31° Northeast 455 524 19,800 1,714 Climbing FlightAware ADS-B
Sun 12:22:40 AM 41.5230 -73.1910 33° Northeast 461 531 20,900 835 Climbing FlightAware ADS-B
Sun 12:23:19 AM 41.5820 -73.1390 33° Northeast 461 531 20,900  Level FlightAware ADS-B
Sun 12:24:07 AM 41.6550 -73.0760 33° Northeast 461 531 20,900  Level FlightAware ADS-B
Sun 12:24:43 AM 41.7100 -73.0280 33° Northeast 461 531 20,900  Level FlightAware ADS-B
Sun 12:25:33 AM 41.7860 -72.9620 33° Northeast 461 531 20,900  Level FlightAware ADS-B
Sun 12:26:09 AM 41.8410 -72.9140 33° Northeast 461 531 20,900 3,115 Level FlightAware ADS-B
Sun 12:27:44 AM 42.0900 -72.6840 34° Northeast 504 580 27,700 3,481 Climbing FlightAware ADS-B
Sun 12:28:20 AM 42.1580 -72.6220 34° Northeast 503 579 28,500 1,462 Climbing FlightAware ADS-B
Sun 12:29:02 AM 42.2400 -72.5470 34° Northeast 496 571 29,600 1,465 Climbing FlightAware ADS-B
Sun 12:29:46 AM 42.3220 -72.4720 34° Northeast 494 568 30,600 1,184 Climbing FlightAware ADS-B
Sun 12:30:18 AM 42.3840 -72.4150 34° Northeast 495 570 31,100 316 Climbing FlightAware ADS-B
Sun 12:31:02 AM 42.4660 -72.3400 34° Northeast 495 570 31,000  Descending FlightAware ADS-B
Sun 12:31:42 AM 42.5400 -72.2700 35° Northeast 494 568 31,100 71 Climbing FlightAware ADS-B
Sun 12:32:26 AM 42.6250 -72.1910 34° Northeast 495 570 31,100  Level FlightAware ADS-B
Sun 12:33:06 AM 42.7010 -72.1220 34° Northeast 496 571 31,100  Level FlightAware ADS-B
Sun 12:33:50 AM 42.7840 -72.0430 35° Northeast 497 572 31,100  Level FlightAware ADS-B
Sun 12:34:30 AM 42.8610 -71.9720 34° Northeast 496 571 31,100 -75 Level FlightAware ADS-B
Sun 12:35:10 AM 42.9370 -71.9010 34° Northeast 495 570 31,000  Descending FlightAware ADS-B
Sun 12:35:46 AM 43.0040 -71.8390 34° Northeast 494 568 31,100 75 Climbing FlightAware ADS-B
Sun 12:36:30 AM 43.0870 -71.7590 35° Northeast 494 568 31,100  Level FlightAware ADS-B
Sun 12:37:10 AM 43.1630 -71.6870 35° Northeast 495 570 31,100  Level FlightAware ADS-B
Sun 12:37:54 AM 43.2440 -71.6100 35° Northeast 495 570 31,100  Level FlightAware ADS-B
Sun 12:38:34 AM 43.3210 -71.5370 35° Northeast 497 572 31,100  Level FlightAware ADS-B
Sun 12:39:18 AM 43.4030 -71.4570 35° Northeast 496 571 31,100  Level FlightAware ADS-B
Sun 12:39:59 AM 43.4780 -71.3870 34° Northeast 497 572 31,100  Level FlightAware ADS-B
Sun 12:40:42 AM 43.5610 -71.3070 35° Northeast 496 571 31,100  Level FlightAware ADS-B
Sun 12:41:22 AM 43.6380 -71.2320 35° Northeast 496 571 31,100 -71 Level FlightAware ADS-B
Sun 12:42:06 AM 43.7190 -71.1540 35° Northeast 496 571 31,000  Descending FlightAware ADS-B
Sun 12:42:48 AM 43.7990 -71.0750 35° Northeast 495 570 31,100  Climbing FlightAware ADS-B
Sun 12:43:32 AM 43.8830 -70.9950 34° Northeast 496 571 31,000  Descending FlightAware ADS-B
Sun 12:44:12 AM 43.9580 -70.9210 35° Northeast 497 572 31,100 79 Climbing FlightAware ADS-B
Sun 12:44:48 AM 44.0240 -70.8570 35° Northeast 497 572 31,100  Level FlightAware ADS-B
Sun 12:45:32 AM 44.1070 -70.7730 36° Northeast 501 577 31,100  Level FlightAware ADS-B
Sun 12:46:12 AM 44.1830 -70.6980 35° Northeast 503 579 31,100  Level FlightAware ADS-B
Sun 12:46:52 AM 44.2590 -70.6230 35° Northeast 504 580 31,100  Level FlightAware ADS-B
Sun 12:47:38 AM 44.3470 -70.5360 35° Northeast 505 581 31,100 -70 Level FlightAware ADS-B
Sun 12:48:18 AM 44.4230 -70.4600 36° Northeast 505 581 31,000  Descending FlightAware ADS-B
Sun 12:49:02 AM 44.5070 -70.3760 35° Northeast 506 582 31,100  Climbing FlightAware ADS-B
Sun 12:49:34 AM 44.5680 -70.3150 35° Northeast 507 583 31,000  Descending FlightAware ADS-B
Sun 12:50:18 AM 44.6520 -70.2300 36° Northeast 506 582 31,100 71 Climbing FlightAware ADS-B
Sun 12:50:58 AM 44.7260 -70.1550 36° Northeast 506 582 31,100  Level FlightAware ADS-B
Sun 12:51:36 AM 44.7990 -70.0800 36° Northeast 506 582 31,100 -79 Level FlightAware ADS-B
Sun 12:52:14 AM 44.8710 -70.0080 35° Northeast 506 582 31,000  Descending FlightAware ADS-B
Sun 12:53:18 AM 44.9890 -69.8860 36° Northeast 504 580 31,100 50 Climbing FlightAware ADS-B
Sun 12:54:13 AM 45.0950 -69.7780 36° Northeast 503 579 31,100 -55 Level FlightAware ADS-B
Sun 12:55:08 AM 45.1940 -69.6750 36° Northeast 505 581 31,000  Descending FlightAware ADS-B
Sun 12:55:54 AM 45.2780 -69.5890 36° Northeast 505 581 31,100 74 Climbing FlightAware ADS-B
Sun 12:56:29 AM 45.3510 -69.5120 37° Northeast 506 582 31,100 -75 Level FlightAware ADS-B
Sun 12:57:14 AM 45.4350 -69.4260 36° Northeast 506 582 31,000 -71 Descending FlightAware ADS-B
Sun 12:57:54 AM 45.5120 -69.3450 36° Northeast 505 581 31,000  Level FlightAware ADS-B
Sun 12:58:34 AM 45.5850 -69.2700 36° Northeast 505 581 31,000 75 Level FlightAware ADS-B
Sun 12:59:14 AM 45.6550 -69.1940 37° Northeast 505 581 31,100 75 Climbing FlightAware ADS-B
Sun 12:59:54 AM 45.7370 -69.1070 37° Northeast 504 580 31,100  Level FlightAware ADS-B
Sun 01:00:49 AM 45.7780 -69.0650 36° Northeast 505 581 31,100  Level FlightAware ADS-B
Sun 01:01:45 AM 45.9330 -68.9000 36° Northeast 506 582 31,100  Level FlightAware ADS-B
Sun 01:02:41 AM 46.0410 -68.7830 37° Northeast 505 581 31,100 -55 Level FlightAware ADS-B
Sun 01:03:35 AM 46.1420 -68.6740 37° Northeast 504 580 31,000 -63 Descending FlightAware ADS-B
Sun 01:04:17 AM 46.2220 -68.5890 36° Northeast 502 578 31,000 76 Level FlightAware ADS-B
Sun 01:04:54 AM 46.1770 -68.6360 216° Southwest 502 578 31,100 78 Climbing FlightAware ADS-B
Sun 01:05:34 AM 46.2410 -68.5680 36° Northeast 502 578 31,100  Level FlightAware ADS-B
Sun 01:06:10 AM 46.2990 -68.5080 36° Northeast 502 578 31,100  Level FlightAware ADS-B
Sun 01:06:59 AM 46.3770 -68.4260 36° Northeast 502 578 31,100  Level FlightAware ADS-B
Sun 01:07:35 AM 46.4340 -68.3650 36° Northeast 502 578 31,100  Level FlightAware ADS-B
Sun 01:08:12 AM 46.4930 -68.3030 36° Northeast 502 578 31,100  Level FlightAware ADS-B
Sun 01:09:00 AM 46.5700 -68.2220 36° Northeast 502 578 31,100 -69 Level FlightAware ADS-B
Sun 01:09:39 AM 46.8250 -67.9240 39° Northeast 503 579 31,000 -75 Descending FlightAware ADS-B
Sun 01:10:20 AM 46.8970 -67.8440 37° Northeast 502 578 31,000 74 Level FlightAware ADS-B
Sun 01:11:00 AM 46.9740 -67.7590 37° Northeast 502 578 31,100 71 Climbing FlightAware ADS-B
Sun 01:11:45 AM 47.0580 -67.6640 38° Northeast 501 577 31,100  Level FlightAware ADS-B
Sun 01:12:25 AM 47.1320 -67.5780 38° Northeast 501 577 31,100  Level FlightAware ADS-B
Sun 01:13:27 AM 47.2350 -67.4640 37° Northeast 501 577 31,100  Level FlightAware ADS-B
Sun 01:14:03 AM 47.2910 -67.4010 37° Northeast 501 577 31,100  Level FlightAware ADS-B
Sun 01:14:51 AM 47.3670 -67.3170 37° Northeast 501 577 31,100  Level FlightAware ADS-B
Sun 01:15:27 AM 47.4230 -67.2540 37° Northeast 501 577 31,100  Level FlightAware ADS-B
Sun 01:16:27 AM 47.5180 -67.1490 37° Northeast 501 577 31,100  Level FlightAware ADS-B
Sun 01:17:03 AM 47.5740 -67.0850 38° Northeast 501 577 31,100  Level FlightAware ADS-B
Sun 01:17:51 AM 47.6500 -67.0010 37° Northeast 501 577 31,100  Level FlightAware ADS-B
Sun 01:18:27 AM 47.7070 -66.9380 37° Northeast 501 577 31,100  Level FlightAware ADS-B
Sun 01:19:15 AM 47.7820 -66.8530 37° Northeast 501 577 31,100  Level FlightAware ADS-B
Sun 01:19:51 AM 47.8390 -66.7890 37° Northeast 501 577 31,100  Level FlightAware ADS-B
Sun 01:20:40 AM 47.9160 -66.7030 37° Northeast 501 577 31,100  Level FlightAware ADS-B
Sun 01:21:16 AM 47.9720 -66.6390 37° Northeast 501 577 31,100  Level FlightAware ADS-B
Sun 01:22:04 AM 48.0480 -66.5540 37° Northeast 501 577 31,100  Level FlightAware ADS-B
Sun 01:22:40 AM 48.1050 -66.4900 37° Northeast 501 577 31,100 -58 Level FlightAware ADS-B
Sun 01:23:47 AM 48.2667 -65.9333 37° Northeast 510 587 31,000 -47 Descending Moncton Center
Sun 01:24:47 AM 48.3667 -65.7833 45° Northeast 510 587 31,000  Level Moncton Center
Sun 01:25:47 AM 48.4667 -65.6333 45° Northeast 510 587 31,000  Level Moncton Center
Sun 01:26:47 AM 48.5667 -65.4833 45° Northeast 510 587 31,000  Level Moncton Center
Sun 01:27:47 AM 48.6667 -65.3167 48° Northeast 520 598 31,000  Level Moncton Center
Sun 01:28:47 AM 48.7500 -65.1667 50° Northeast 520 598 31,000  Level Moncton Center
Sun 01:29:47 AM 48.8667 -64.9833 46° Northeast 510 587 31,000  Level Moncton Center
Sun 01:30:47 AM 48.9500 -64.8333 50° Northeast 520 598 31,000  Level Moncton Center
Sun 01:31:47 AM 49.0500 -64.6833 44° Northeast 510 587 31,000  Level Moncton Center
Sun 01:32:47 AM 49.1500 -64.5333 44° Northeast 510 587 31,000  Level Moncton Center
Sun 01:33:47 AM 49.2500 -64.3500 50° Northeast 510 587 31,000  Level Moncton Center
Sun 01:34:47 AM 49.3500 -64.1833 47° Northeast 510 587 31,000  Level Moncton Center
Sun 01:35:47 AM 49.4333 -64.0333 49° Northeast 520 598 31,000  Level Moncton Center
Sun 01:36:47 AM 49.5333 -63.8833 44° Northeast 520 598 31,000  Level Moncton Center
Sun 01:37:47 AM 49.6333 -63.7167 47° Northeast 510 587 31,000  Level Moncton Center
Sun 01:38:47 AM 49.7333 -63.5500 47° Northeast 520 598 31,000  Level Moncton Center
Sun 01:39:47 AM 49.8333 -63.3833 47° Northeast 520 598 31,000  Level Moncton Center
Sun 01:40:47 AM 49.9333 -63.2000 50° Northeast 520 598 31,000  Level Moncton Center
Sun 01:41:47 AM 50.0333 -63.0500 44° Northeast 520 598 31,000 300 Level Moncton Center
Sun 01:42:47 AM 50.1333 -62.8833 47° Northeast 520 598 31,600 850 Climbing Moncton Center
Sun 01:43:47 AM 50.2167 -62.7167 52° Northeast 520 598 32,700 700 Climbing Moncton Center
Sun 01:44:47 AM 50.3333 -62.5333 45° Northeast 520 598 33,000 150 Climbing Moncton Center
Sun 01:45:47 AM 50.4167 -62.3667 52° Northeast 520 598 33,000  Level Moncton Center
Sun 01:46:47 AM 50.5000 -62.1833 54° Northeast 520 598 33,000  Level Moncton Center
Sun 01:47:47 AM 50.6000 -62.0500 40° Northeast 520 598 33,000  Level Moncton Center
Sun 01:48:47 AM 50.7000 -61.8667 49° Northeast 510 587 33,000 50 Level Moncton Center
Sun 01:49:47 AM 50.8000 -61.6667 52° Northeast 520 598 33,100  Climbing Moncton Center
Sun 01:50:47 AM 50.9000 -61.5000 46° Northeast 520 598 33,000 -50 Descending Moncton Center
Sun 01:51:47 AM 50.9667 -61.3333 58° Northeast 520 598 33,000  Level Moncton Center
Sun 01:52:47 AM 51.0833 -61.1500 45° Northeast 520 598 33,000  Level Moncton Center
Sun 01:53:47 AM 51.1667 -60.9833 51° Northeast 520 598 33,000  Level Moncton Center
Sun 01:54:47 AM 51.2667 -60.7833 51° Northeast 520 598 33,000  Level Moncton Center
Sun 01:55:47 AM 51.3500 -60.6167 51° Northeast 520 598 33,000  Level Moncton Center
Sun 01:56:47 AM 51.4500 -60.4500 46° Northeast 520 598 33,000  Level Moncton Center
Sun 01:57:47 AM 51.5500 -60.2500 51° Northeast 520 598 33,000  Level Moncton Center
Sun 01:58:47 AM 51.6167 -60.0833 57° Northeast 520 598 33,000  Level Moncton Center
Sun 01:59:47 AM 51.7167 -59.8833 51° Northeast 520 598 33,000  Level Moncton Center
Sun 02:00:47 AM 51.8000 -59.7167 51° Northeast 510 587 33,000  Level Moncton Center
Sun 02:01:47 AM 51.8833 -59.5167 56° Northeast 510 587 33,000  Level Moncton Center
Sun 02:02:47 AM 51.9833 -59.3500 46° Northeast 510 587 33,000  Level Moncton Center
Sun 02:03:47 AM 52.0500 -59.1500 61° Northeast 510 587 33,000  Level Moncton Center
Sun 02:04:47 AM 52.1500 -58.9667 48° Northeast 520 598 33,000  Level Moncton Center
Sun 02:05:47 AM 52.2333 -58.7667 56° Northeast 520 598 33,000  Level Moncton Center
Sun 02:06:47 AM 52.3167 -58.6000 51° Northeast 520 598 33,000  Level Moncton Center
Sun 02:07:47 AM 52.4000 -58.4167 53° Northeast 520 598 33,000  Level Moncton Center
Sun 02:08:47 AM 52.5000 -58.2167 51° Northeast 520 598 33,000  Level Moncton Center
Sun 02:09:47 AM 52.5667 -58.0333 59° Northeast 510 587 33,000  Level Moncton Center
Sun 02:10:47 AM 52.6667 -57.8333 50° Northeast 510 587 33,000 300 Level Moncton Center
Sun 02:11:47 AM 52.7333 -57.6500 59° Northeast 520 598 33,600 500 Climbing Moncton Center
Sun 02:12:47 AM 52.8167 -57.4500 55° Northeast 520 598 34,000 200 Climbing Moncton Center
Sun 02:13:47 AM 52.9167 -57.2333 53° Northeast 520 598 34,000  Level Moncton Center
Sun 02:14:47 AM 53.0000 -57.0500 53° Northeast 520 598 34,000  Level Moncton Center
Sun 02:15:47 AM 53.0667 -56.8500 61° Northeast 520 598 34,000  Level Moncton Center
Sun 02:16:47 AM 53.1667 -56.6667 48° Northeast 520 598 34,000  Level Moncton Center
Sun 02:17:47 AM 53.2333 -56.4500 63° Northeast 520 598 34,000  Level Moncton Center
Sun 02:18:47 AM 53.3167 -56.2667 53° Northeast 520 598 34,000  Level Moncton Center
Sun 02:19:47 AM 53.4000 -56.0500 57° Northeast 520 598 34,000  Level Moncton Center
Sun 02:20:47 AM 53.4833 -55.8667 53° Northeast 520 598 34,000  Level Moncton Center
Sun 02:21:47 AM 53.5667 -55.6667 55° Northeast 520 598 34,000  Level Moncton Center
Sun 02:22:47 AM 53.6500 -55.4500 57° Northeast 520 598 34,000  Level Moncton Center
Sun 02:23:47 AM 53.7333 -55.2500 55° Northeast 520 598 34,000  Level Moncton Center
Sun 02:24:47 AM 53.8000 -55.0333 62° Northeast 520 598 34,000  Level Moncton Center
Sun 02:25:47 AM 53.8833 -54.8167 57° Northeast 530 610 34,000  Level Moncton Center
Sun 02:26:47 AM 53.9333 -54.6167 67° East 530 610 34,000  Level Moncton Center
Sun 02:27:47 AM 54.0000 -54.3667 66° East 530 610 34,000  Level Moncton Center
Sun 02:28:59 AM 54.0667 -54.1000 67° East 530 610 34,000  Level Gander Center
Sun 02:29:59 AM 54.1167 -53.8500 71° East 540 621 34,000  Level Gander Center
Sun 02:30:59 AM 54.1833 -53.6167 64° Northeast 540 621 34,000  Level Gander Center
Sun 02:31:59 AM 54.2500 -53.3833 64° Northeast 540 621 34,000  Level Gander Center
Sun 02:32:59 AM 54.3000 -53.1333 71° East 540 621 34,000  Level Gander Center
Sun 02:33:59 AM 54.3500 -52.9000 70° East 540 621 34,000  Level Gander Center
Sun 02:34:59 AM 54.4000 -52.6500 71° East 540 621 34,000  Level Gander Center
Sun 02:35:59 AM 54.4667 -52.4167 64° Northeast 540 621 34,000  Level Gander Center
Sun 02:36:59 AM 54.5167 -52.1667 71° East 540 621 34,000  Level Gander Center
Sun 02:38:59 AM 54.6000 -51.7167 72° East 540 621 34,000  Level Gander Center
Sun 02:40:59 AM 54.7167 -51.2167 68° East 550 633 34,000  Level Gander Center
Sun 02:42:00 AM 54.7726 -50.9818 67° East  Level FlightAware Approximate
Sun 02:44:17 AM 54.9000 -50.3833 67° East 520 598 34,000  Level Gander Center
Sun 02:45:17 AM 54.9500 -50.1333 71° East 550 633 34,000 Level Gander Center
Sun 02:47:00 AM 55.0638 -49.7463 66° East  Level FlightAware Approximate
Sun 02:54:00 AM 55.4607 -48.0971 66° East  Level FlightAware Approximate
Sun 02:55:00 AM 55.5156 -47.8588 68° East  Level FlightAware Approximate
Sun 02:56:00 AM 55.5700 -47.6199 68° East  Level FlightAware Approximate
Sun 02:57:00 AM 55.6239 -47.3802 68° East  Level FlightAware Approximate
Sun 02:58:00 AM 55.6774 -47.1400 68° East  Level FlightAware Approximate
Sun 02:59:00 AM 55.7304 -46.8991 69° East  Level FlightAware Approximate
Sun 03:00:00 AM 55.7830 -46.6575 69° East  Level FlightAware Approximate
Sun 03:01:00 AM 55.8350 -46.4153 69° East  Level FlightAware Approximate
Sun 03:02:00 AM 55.8866 -46.1724 69° East  Level FlightAware Approximate
Sun 03:03:00 AM 55.9377 -45.9289 69° East  Level FlightAware Approximate
Sun 03:04:00 AM 55.9883 -45.6847 70° East  Level FlightAware Approximate
Sun 03:05:00 AM 56.0385 -45.4399 70° East  Level FlightAware Approximate
Sun 03:06:00 AM 56.0881 -45.1945 70° East  Level FlightAware Approximate
Sun 03:07:00 AM 56.1373 -44.9485 70° East  Level FlightAware Approximate
Sun 03:08:00 AM 56.1860 -44.7018 70° East  Level FlightAware Approximate
Sun 03:09:00 AM 56.2341 -44.4545 71° East  Level FlightAware Approximate
Sun 03:10:00 AM 56.2818 -44.2066 71° East  Level FlightAware Approximate
Sun 03:11:00 AM 56.3290 -43.9580 71° East  Level FlightAware Approximate
Sun 03:12:00 AM 56.3757 -43.7089 71° East  Level FlightAware Approximate
Sun 03:13:00 AM 56.4219 -43.4591 71° East  Level FlightAware Approximate
Sun 03:14:00 AM 56.4676 -43.2088 72° East  Level FlightAware Approximate
Sun 03:15:00 AM 56.5128 -42.9578 72° East  Level FlightAware Approximate
Sun 03:16:00 AM 56.5575 -42.7062 72° East  Level FlightAware Approximate
Sun 03:17:00 AM 56.6016 -42.4541 72° East  Level FlightAware Approximate
Sun 03:18:00 AM 56.6453 -42.2014 72° East  Level FlightAware Approximate
Sun 03:19:00 AM 56.6884 -41.9481 73° East  Level FlightAware Approximate
Sun 03:20:00 AM 56.7311 -41.6942 73° East  Level FlightAware Approximate
Sun 03:21:00 AM 56.7732 -41.4397 73° East  Level FlightAware Approximate
Sun 03:22:00 AM 56.8148 -41.1847 73° East  Level FlightAware Approximate
Sun 03:23:00 AM 56.8558 -40.9291 74° East  Level FlightAware Approximate
Sun 03:24:00 AM 56.8964 -40.6729 74° East  Level FlightAware Approximate
Sun 03:25:00 AM 56.9364 -40.4162 74° East  Level FlightAware Approximate
Sun 03:26:00 AM 56.9759 -40.1589 74° East  Level FlightAware Approximate
Sun 03:27:00 AM 57.0136 -39.9005 76° East  Level FlightAware Approximate
Sun 03:28:00 AM 57.0488 -39.6407 76° East  Level FlightAware Approximate
Sun 03:29:00 AM 57.0834 -39.3803 76° East  Level FlightAware Approximate
Sun 03:30:00 AM 57.1175 -39.1194 76° East  Level FlightAware Approximate
Sun 03:31:00 AM 57.1511 -38.8581 77° East  Level FlightAware Approximate
Sun 03:32:00 AM 57.1841 -38.5963 77° East  Level FlightAware Approximate
Sun 03:33:00 AM 57.2165 -38.3340 77° East  Level FlightAware Approximate
Sun 03:34:00 AM 57.2485 -38.0713 77° East  Level FlightAware Approximate
Sun 03:35:00 AM 57.2798 -37.8081 77° East  Level FlightAware Approximate
Sun 03:36:00 AM 57.3106 -37.5445 78° East  Level FlightAware Approximate
Sun 03:37:00 AM 57.3409 -37.2804 78° East  Level FlightAware Approximate
Sun 03:38:00 AM 57.3720 -37.0165 77° East  Level FlightAware Approximate
Sun 03:39:00 AM 57.4032 -36.7524 78° East  Level FlightAware Approximate
Sun 03:40:00 AM 57.4338 -36.4878 78° East  Level FlightAware Approximate
Sun 03:41:00 AM 57.4638 -36.2227 78° East  Level FlightAware Approximate
Sun 03:42:00 AM 57.4933 -35.9573 78° East  Level FlightAware Approximate
Sun 03:43:00 AM 57.5223 -35.6914 78° East  Level FlightAware Approximate
Sun 03:44:00 AM 57.5507 -35.4251 79° East  Level FlightAware Approximate
Sun 03:45:00 AM 57.5785 -35.1584 79° East  Level FlightAware Approximate
Sun 03:46:00 AM 57.6057 -34.8913 79° East  Level FlightAware Approximate
Sun 03:47:00 AM 57.6324 -34.6237 79° East  Level FlightAware Approximate
Sun 03:48:00 AM 57.6586 -34.3558 80° East  Level FlightAware Approximate
Sun 03:49:00 AM 57.6841 -34.0875 80° East  Level FlightAware Approximate
Sun 03:50:00 AM 57.7091 -33.8189 80° East  Level FlightAware Approximate
Sun 03:51:00 AM 57.7335 -33.5498 80° East  Level FlightAware Approximate
Sun 03:52:00 AM 57.7574 -33.2804 80° East  Level FlightAware Approximate
Sun 03:53:00 AM 57.7807 -33.0107 81° East  Level FlightAware Approximate
Sun 03:54:00 AM 57.8034 -32.7406 81° East  Level FlightAware Approximate
Sun 03:55:00 AM 57.8255 -32.4702 81° East  Level FlightAware Approximate
Sun 03:56:00 AM 57.8470 -32.1995 81° East  Level FlightAware Approximate
Sun 03:57:00 AM 57.8680 -31.9284 82° East  Level FlightAware Approximate
Sun 03:58:00 AM 57.8884 -31.6570 82° East  Level FlightAware Approximate
Sun 03:59:00 AM 57.9082 -31.3853 82° East  Level FlightAware Approximate
Sun 04:00:00 AM 57.9275 -31.1133 82° East  Level FlightAware Approximate
Sun 04:01:00 AM 57.9462 -30.8411 83° East  Level FlightAware Approximate
Sun 04:02:00 AM 57.9642 -30.5686 83° East  Level FlightAware Approximate
Sun 04:03:00 AM 57.9817 -30.2957 83° East  Level FlightAware Approximate
Sun 04:04:00 AM 57.9986 -30.0226 83° East  Level FlightAware Approximate
Sun 04:05:00 AM 58.0096 -29.7484 86° East  Level FlightAware Approximate
Sun 04:06:00 AM 58.0196 -29.4740 86° East  Level FlightAware Approximate
Sun 04:07:00 AM 58.0289 -29.1993 86° East  Level FlightAware Approximate
Sun 04:08:00 AM 58.0377 -28.9246 86° East  Level FlightAware Approximate
Sun 04:09:00 AM 58.0459 -28.6497 87° East  Level FlightAware Approximate
Sun 04:10:00 AM 58.0535 -28.3746 87° East  Level FlightAware Approximate
Sun 04:11:00 AM 58.0605 -28.0995 87° East  Level FlightAware Approximate
Sun 04:12:00 AM 58.0668 -27.8243 87° East  Level FlightAware Approximate
Sun 04:13:00 AM 58.0726 -27.5490 88° East  Level FlightAware Approximate
Sun 04:14:00 AM 58.0778 -27.2735 88° East  Level FlightAware Approximate
Sun 04:15:00 AM 58.0825 -26.9981 88° East  Level FlightAware Approximate
Sun 04:16:00 AM 58.0865 -26.7225 88° East  Level FlightAware Approximate
Sun 04:17:00 AM 58.0899 -26.4469 89° East  Level FlightAware Approximate
Sun 04:18:00 AM 58.0927 -26.1712 89° East  Level FlightAware Approximate
Sun 04:19:00 AM 58.0950 -25.8955 89° East  Level FlightAware Approximate
Sun 04:20:00 AM 58.0966 -25.6198 89° East  Level FlightAware Approximate
Sun 04:21:00 AM 58.0976 -25.3440 89° East  Level FlightAware Approximate
Sun 04:22:00 AM 58.0981 -25.0683 90° East  Level FlightAware Approximate
Sun 04:23:00 AM 58.0979 -24.7925 90° East  Level FlightAware Approximate
Sun 04:24:00 AM 58.0972 -24.5168 90° East  Level FlightAware Approximate
Sun 04:25:00 AM 58.0958 -24.2410 90° East  Level FlightAware Approximate
Sun 04:26:00 AM 58.0939 -23.9653 91° East  Level FlightAware Approximate
Sun 04:27:00 AM 58.0914 -23.6896 91° East  Level FlightAware Approximate
Sun 04:28:00 AM 58.0882 -23.4140 91° East  Level FlightAware Approximate
Sun 04:29:00 AM 58.0845 -23.1384 91° East  Level FlightAware Approximate
Sun 04:30:00 AM 58.0802 -22.8629 92° East  Level FlightAware Approximate
Sun 04:31:00 AM 58.0753 -22.5874 92° East  Level FlightAware Approximate
Sun 04:32:00 AM 58.0698 -22.3139 92° East  Level FlightAware Approximate
Sun 04:33:00 AM 58.0638 -22.0404 92° East  Level FlightAware Approximate
Sun 04:34:00 AM 58.0572 -21.7680 93° East  Level FlightAware Approximate
Sun 04:35:00 AM 58.0499 -21.4956 93° East  Level FlightAware Approximate
Sun 04:36:00 AM 58.0422 -21.2234 93° East  Level FlightAware Approximate
Sun 04:37:00 AM 58.0338 -20.9513 93° East  Level FlightAware Approximate
Sun 04:38:00 AM 58.0249 -20.6793 93° East  Level FlightAware Approximate
Sun 04:39:00 AM 58.0154 -20.4074 94° East  Level FlightAware Approximate
Sun 04:40:00 AM 58.0053 -20.1358 94° East  Level FlightAware Approximate
Sun 04:41:00 AM 58.0026 -19.8639 88° East  Level FlightAware Approximate
Sun 04:42:00 AM 58.0074 -19.5918 88° East  Level FlightAware Approximate
Sun 04:43:00 AM 58.0115 -19.3195 88° East  Level FlightAware Approximate
Sun 04:44:00 AM 58.0151 -19.0473 88° East  Level FlightAware Approximate
Sun 04:45:00 AM 58.0181 -18.7749 89° East  Level FlightAware Approximate
Sun 04:46:00 AM 58.0206 -18.5025 89° East  Level FlightAware Approximate
Sun 04:47:00 AM 58.0224 -18.2301 89° East  Level FlightAware Approximate
Sun 04:48:00 AM 58.0237 -17.9577 89° East  Level FlightAware Approximate
Sun 04:49:00 AM 58.0244 -17.6852 90° East  Level FlightAware Approximate
Sun 04:50:00 AM 58.0245 -17.4127 90° East  Level FlightAware Approximate
Sun 04:51:00 AM 58.0240 -17.1403 90° East  Level FlightAware Approximate
Sun 04:52:00 AM 58.0229 -16.8683 90° East  Level FlightAware Approximate
Sun 04:53:00 AM 58.0213 -16.5963 91° East  Level FlightAware Approximate
Sun 04:54:00 AM 58.0191 -16.3244 91° East  Level FlightAware Approximate
Sun 04:55:00 AM 58.0163 -16.0525 91° East  Level FlightAware Approximate
Sun 04:56:00 AM 58.0129 -15.7806 91° East  Level FlightAware Approximate
Sun 04:57:00 AM 58.0090 -15.5088 91° East  Level FlightAware Approximate
Sun 04:58:00 AM 58.0044 -15.2371 92° East  Level FlightAware Approximate
Sun 04:59:00 AM 57.9950 -14.9667 106° East  Level FlightAware Approximate
Sun 05:00:00 AM 57.9555 -14.7055 106° East  Level FlightAware Approximate
Sun 05:01:00 AM 57.9154 -14.4449 106° East  Level FlightAware Approximate
Sun 05:02:00 AM 57.8748 -14.1848 106° East  Level FlightAware Approximate
Sun 05:03:00 AM 57.8337 -13.9254 106° East  Level FlightAware Approximate
Sun 05:04:00 AM 57.7920 -13.6665 107° East  Level FlightAware Approximate
Sun 05:05:00 AM 57.7499 -13.4083 107° East  Level FlightAware Approximate
Sun 05:06:00 AM 57.7071 -13.1507 107° East  Level FlightAware Approximate
Sun 05:07:00 AM 57.6639 -12.8936 107° East  Level FlightAware Approximate
Sun 05:07:26 AM 57.0150 -10.0660 108° East 556 640 35,000  Level FlightAware ADS-B
Sun 05:08:00 AM 57.6202 -12.6372 108° East  Level FlightAware Approximate
Sun 05:08:07 AM 56.9820 -9.8830 108° East 554 638 35,000  Level FlightAware ADS-B
Sun 05:09:01 AM 56.9470 -9.6510 105° East 556 640 35,100 64 Climbing FlightAware ADS-B
Sun 05:09:41 AM 56.9170 -9.4570 106° East 556 640 35,100  Level FlightAware ADS-B
Sun 05:10:21 AM 56.8810 -9.2970 112° Southeast 552 635 35,100 -55 Level FlightAware ADS-B
Sun 05:11:30 AM 56.8020 -9.0450 120° Southeast 550 633 35,000 -59 Descending FlightAware ADS-B
Sun 05:12:02 AM 56.7444 -8.8673 120° Southeast 496 571 35,000  Level FlightAware UK
Sun 05:12:05 AM 56.7420 -8.8610 120° Southeast 549 632 35,000  Level FlightAware ADS-B
Sun 05:12:52 AM 56.6830 -8.6820 121° Southeast 549 632 35,000 71 Level FlightAware ADS-B
Sun 05:13:30 AM 56.6310 -8.5270 121° Southeast 554 638 35,100  Climbing FlightAware ADS-B
Sun 05:13:32 AM 56.6250 -8.5075 121° Southeast 498 573 35,000 -188 Descending FlightAware UK
Sun 05:14:02 AM 56.5851 -8.3885 121° Southeast 498 573 35,000  Level FlightAware UK
Sun 05:14:15 AM 56.5700 -8.3440 121° Southeast 553 636 35,000  Level FlightAware ADS-B
Sun 05:14:55 AM 56.5170 -8.1910 122° Southeast 552 635 35,000 80 Level FlightAware ADS-B
Sun 05:15:30 AM 56.4700 -8.0490 122° Southeast 552 635 35,100  Climbing FlightAware ADS-B
Sun 05:15:32 AM 56.4649 -8.0339 122° Southeast 498 573 35,000 -188 Descending FlightAware UK
Sun 05:16:02 AM 56.4246 -7.9168 122° Southeast 500 575 35,000  Level FlightAware UK
Sun 05:16:15 AM 56.4100 -7.8740 122° Southeast 551 634 35,000  Level FlightAware ADS-B
Sun 05:16:55 AM 56.3560 -7.7180 122° Southeast 550 633 35,000  Level FlightAware ADS-B
Sun 05:17:32 AM 56.3036 -7.5669 122° Southeast 498 573 35,000  Level FlightAware UK
Sun 05:17:35 AM 56.3020 -7.5630 122° Southeast 549 632 35,000  Level FlightAware ADS-B
Sun 05:18:16 AM 56.2480 -7.4090 122° Southeast 548 631 35,000  Level FlightAware ADS-B
Sun 05:19:01 AM 56.1860 -7.2320 122° Southeast 547 629 35,000  Level FlightAware ADS-B
Sun 05:19:03 AM 56.1819 -7.2199 122° Southeast 498 573 35,000  Level FlightAware UK
Sun 05:19:33 AM 56.1415 -7.1047 122° Southeast 498 573 35,000 158 Level FlightAware UK
Sun 05:19:41 AM 56.1330 -7.0820 122° Southeast 548 631 35,100  Climbing FlightAware ADS-B
Sun 05:20:26 AM 56.0720 -6.9060 122° Southeast 547 629 35,000  Descending FlightAware ADS-B
Sun 05:21:07 AM 56.0170 -6.7490 122° Southeast 546 628 35,100  Climbing FlightAware ADS-B
Sun 05:21:39 AM 55.9724 -6.6225 122° Southeast 498 573 35,000 -130 Descending FlightAware UK
Sun 05:21:53 AM 55.9560 -6.5780 122° Southeast 546 628 35,000  Level FlightAware ADS-B
Sun 05:22:32 AM 55.9020 -6.4260 122° Southeast 545 627 35,000  Level FlightAware ADS-B
Sun 05:23:09 AM 55.8502 -6.2826 122° Southeast 498 573 35,000  Level FlightAware UK
Sun 05:23:17 AM 55.8420 -6.2600 122° Southeast 545 627 35,000 125 Level FlightAware ADS-B
Sun 05:23:57 AM 55.7860 -6.1070 123° Southeast 539 620 35,100  Climbing FlightAware ADS-B
Sun 05:24:32 AM 55.7390 -5.9800 123° Southeast 538 619 35,000 -83 Descending FlightAware ADS-B
Sun 05:25:09 AM 55.6863 -5.8328 123° Southeast 498 573 35,000  Level FlightAware UK
Sun 05:25:12 AM 55.6840 -5.8270 123° Southeast 538 619 35,000  Level FlightAware ADS-B
Sun 05:25:57 AM 55.6230 -5.6630 123° Southeast 538 619 35,000 71 Level FlightAware ADS-B
Sun 05:26:37 AM 55.5680 -5.5120 123° Southeast 537 618 35,100  Climbing FlightAware ADS-B
Sun 05:27:17 AM 55.5130 -5.3680 123° Southeast 537 618 35,000 -136 Descending FlightAware ADS-B
Sun 05:27:21 AM 55.5051 -5.3449 123° Southeast 496 571 35,000  Level FlightAware UK
Sun 05:27:51 AM 55.4637 -5.2348 123° Southeast 498 573 35,000  Level FlightAware UK
Sun 05:28:03 AM 55.4490 -5.1990 123° Southeast 536 617 35,000  Level FlightAware ADS-B
Sun 05:28:43 AM 55.3940 -5.0500 123° Southeast 536 617 35,000 80 Level FlightAware ADS-B
Sun 05:29:18 AM 55.3460 -4.9250 124° Southeast 535 616 35,100  Climbing FlightAware ADS-B
Sun 05:29:54 AM 55.2960 -4.7950 124° Southeast 535 616 35,000 -154 Descending FlightAware ADS-B
Sun 05:29:57 AM 55.2888 -4.7747 124° Southeast 498 573 35,000  Level FlightAware UK
Sun 05:30:27 AM 55.2471 -4.6661 124° Southeast 500 575 35,000  Level FlightAware UK
Sun 05:30:55 AM 55.2130 -4.5780 124° Southeast 538 619 35,000  Level FlightAware ADS-B
Sun 05:31:49 AM 55.1340 -4.3770 124° Southeast 536 617 35,000  Level FlightAware ADS-B
Sun 05:31:51 AM 55.1301 -4.3646 124° Southeast 500 575 35,000  Level FlightAware UK
Sun 05:32:27 AM 55.0796 -4.2359 124° Southeast 498 573 35,000 140 Level FlightAware UK
Sun 05:32:34 AM 55.0720 -4.2170 124° Southeast 533 613 35,100 128 Climbing FlightAware ADS-B
Sun 05:33:14 AM 55.0160 -4.0760 125° Southeast 532 612 35,100  Level FlightAware ADS-B
Sun 05:33:47 AM 54.9570 -3.9750 135° Southeast 529 609 35,100 -92 Level FlightAware ADS-B
Sun 05:34:19 AM 54.8930 -3.8960 145° Southeast 529 609 35,000 -79 Descending FlightAware ADS-B
Sun 05:35:03 AM 54.8090 -3.7850 143° Southeast 528 608 35,000  Level FlightAware ADS-B
Sun 05:35:43 AM 54.7320 -3.6770 141° Southeast 529 609 35,000 73 Level FlightAware ADS-B
Sun 05:36:25 AM 54.6530 -3.5680 141° Southeast 529 609 35,100  Climbing FlightAware ADS-B
Sun 05:37:07 AM 54.5730 -3.4530 140° Southeast 529 609 35,000 -81 Descending FlightAware ADS-B
Sun 05:37:39 AM 54.5042 -3.3819 140° Southeast 498 573 35,000  Level FlightAware UK
Sun 05:37:51 AM 54.4810 -3.3590 140° Southeast 525 604 35,000 115 Level FlightAware ADS-B
Sun 05:38:31 AM 54.3960 -3.2820 152° Southeast 523 602 35,100  Climbing FlightAware ADS-B
Sun 05:39:12 AM 54.3110 -3.1990 150° Southeast 523 602 35,000 -79 Descending FlightAware ADS-B
Sun 05:39:47 AM 54.2360 -3.1250 150° Southeast 522 601 35,000  Level FlightAware ADS-B
Sun 05:40:28 AM 54.1495 -3.0413 150° Southeast 496 571 35,000 133 Level FlightAware UK
Sun 05:40:32 AM 54.1430 -3.0350 150° Southeast 523 602 35,100  Climbing FlightAware ADS-B
Sun 05:41:07 AM 54.0670 -2.9620 151° Southeast 523 602 35,000 -80 Descending FlightAware ADS-B
Sun 05:41:47 AM 53.9840 -2.8800 150° Southeast 522 601 35,000  Level FlightAware ADS-B
Sun 05:42:29 AM 53.8960 -2.7970 151° Southeast 522 601 35,000  Level FlightAware ADS-B
Sun 05:43:04 AM 53.8223 -2.7230 151° Southeast 496 571 35,000  Level FlightAware UK
Sun 05:43:09 AM 53.8150 -2.7180 151° Southeast 522 601 35,000  Level FlightAware ADS-B
Sun 05:43:46 AM 53.7339 -2.6391 150° Southeast 523 602 35,000  Level FlightAware ADS-B
Sun 05:44:16 AM 53.6707 -2.5777 150° Southeast 496 571 35,000  Level FlightAware UK
Sun 05:44:37 AM 53.6300 -2.5410 150° Southeast 522 601 35,000  Level FlightAware ADS-B
Sun 05:44:57 AM 53.5850 -2.4970 150° Southeast 522 601 35,000  Level FlightAware ADS-B
Sun 05:45:52 AM 53.4685 -2.3870 150° Southeast 496 571 35,000  Level FlightAware UK
Sun 05:46:16 AM 53.4540 -2.3740 150° Southeast 35,000  Level FlightAware ADS-B
Sun 05:47:03 AM 53.3260 -2.2540 151° Southeast 521 600 35,000  Level FlightAware ADS-B
Sun 05:47:43 AM 53.2400 -2.1740 151° Southeast 521 600 35,000  Level FlightAware ADS-B
Sun 05:48:22 AM 53.1524 -2.0916 151° Southeast 498 573 35,000  Level FlightAware UK
Sun 05:48:23 AM 53.1550 -2.0950 151° Southeast 521 600 35,000  Level FlightAware ADS-B
Sun 05:49:06 AM 53.0630 -2.0100 151° Southeast 520 598 35,000  Level FlightAware ADS-B
Sun 05:49:35 AM 52.9997 -1.9521 151° Southeast 519 597 35,000 97 Level FlightAware ADS-B
Sun 05:50:08 AM 52.9310 -1.8889 151° Southeast 518 596 35,100  Climbing FlightAware ADS-B
Sun 05:50:46 AM 52.8521 -1.8162 151° Southeast 517 595 35,000 -87 Descending FlightAware ADS-B
Sun 05:51:17 AM 52.7871 -1.7573 151° Southeast 516 594 35,000  Level FlightAware ADS-B
Sun 05:51:51 AM 52.7168 -1.6930 151° Southeast 516 594 35,000 91 Level FlightAware ADS-B
Sun 05:52:23 AM 52.6502 -1.6345 152° Southeast 514 592 35,100  Climbing FlightAware ADS-B
Sun 05:52:53 AM 52.5859 -1.5763 151° Southeast 514 592 35,000 -98 Descending FlightAware ADS-B
Sun 05:53:24 AM 52.5218 -1.5184 151° Southeast 513 590 35,000  Level FlightAware ADS-B
Sun 05:53:57 AM 52.4538 -1.4571 151° Southeast 512 589 35,000  Level FlightAware ADS-B
Sun 05:54:27 AM 52.3911 -1.4016 152° Southeast 511 588 35,000 98 Level FlightAware ADS-B
Sun 05:54:58 AM 52.3273 -1.3445 151° Southeast 511 588 35,100 94 Climbing FlightAware ADS-B
Sun 05:55:31 AM 52.2596 -1.2858 152° Southeast 511 588 35,100 -95 Level FlightAware ADS-B
Sun 05:56:01 AM 52.1973 -1.2309 152° Southeast 511 588 35,000 -100 Descending FlightAware ADS-B
Sun 05:56:31 AM 52.1331 -1.1743 152° Southeast 510 587 35,000 97 Level FlightAware ADS-B
Sun 05:57:03 AM 52.0681 -1.1162 151° Southeast 510 587 35,100  Climbing FlightAware ADS-B
Sun 05:57:27 AM 52.0183 -1.0721 151° Southeast 509 586 35,000 -200 Descending FlightAware ADS-B
Sun 05:57:33 AM 52.0064 -1.0596 147° Southeast 508 585 35,000  Level FlightAware ADS-B
Sun 05:57:44 AM 51.9862 -1.0343 142° Southeast 505 581 35,000  Level FlightAware ADS-B
Sun 05:57:49 AM 51.9771 -1.0216 139° Southeast 503 579 35,000  Level FlightAware ADS-B
Sun 05:57:57 AM 51.9651 -1.0031 137° Southeast 502 578 35,000  Level FlightAware ADS-B
Sun 05:58:07 AM 51.9492 -0.9718 129° Southeast 500 575 35,000  Level FlightAware ADS-B
Sun 05:58:19 AM 51.9339 -0.9354 124° Southeast 497 572 35,000  Level FlightAware ADS-B
Sun 05:58:49 AM 51.9019 -0.8372 118° Southeast 494 568 35,000  Level FlightAware ADS-B
Sun 05:59:20 AM 51.8701 -0.7355 117° Southeast 494 568 35,000 98 Level FlightAware ADS-B
Sun 05:59:50 AM 51.8392 -0.6367 117° Southeast 494 568 35,100 98 Climbing FlightAware ADS-B
Sun 06:00:21 AM 51.8074 -0.5380 118° Southeast 495 570 35,100  Level FlightAware ADS-B
Sun 06:00:51 AM 51.7759 -0.4365 117° Southeast 495 570 35,100  Level FlightAware ADS-B
Sun 06:01:21 AM 51.7440 -0.3382 118° Southeast 495 570 35,100  Level FlightAware ADS-B
Sun 06:01:52 AM 51.7112 -0.2369 118° Southeast 495 570 35,100  Level FlightAware ADS-B
Sun 06:02:25 AM 51.6767 -0.1295 117° Southeast 493 567 35,100  Level FlightAware ADS-B
Sun 06:02:57 AM 51.6432 -0.0258 117° Southeast 492 566 35,100  Level FlightAware ADS-B
Sun 06:03:29 AM 51.6085 0.0781 118° Southeast 492 566 35,100 -94 Level FlightAware ADS-B
Sun 06:04:01 AM 51.5749 0.1814 118° Southeast 493 567 35,000 -95 Descending FlightAware ADS-B
Sun 06:04:32 AM 51.5419 0.2814 118° Southeast 493 567 35,000  Level FlightAware ADS-B
Sun 06:04:56 AM 51.5158 0.3584 119° Southeast 492 566 35,000 111 Level FlightAware ADS-B
Sun 06:05:26 AM 51.4947 0.4611 108° East 486 559 35,100 98 Climbing FlightAware ADS-B
Sun 06:05:57 AM 51.4770 0.5688 105° East 486 559 35,100  Level FlightAware ADS-B
Sun 06:06:27 AM 51.4575 0.6724 107° East 488 562 35,100 -105 Level FlightAware ADS-B
Sun 06:06:54 AM 51.4390 0.7652 108° East 487 560 35,000  Descending FlightAware ADS-B
Sun 06:07:28 AM 51.4192 0.8796 105° East 485 558 35,100 94 Climbing FlightAware ADS-B
Sun 06:07:58 AM 51.4012 0.9869 105° East 485 558 35,100  Level FlightAware ADS-B
Sun 06:09:02 AM 51.3650 1.1910 106° East 485 558 35,100 -57 Level FlightAware ADS-B (KGJT)
Sun 06:09:43 AM 51.3367 1.3494 106° East 494 568 35,000  Descending FlightAware UK
Sun 06:09:45 AM 51.3370 1.3490 106° East 486 559 35,100 130 Climbing FlightAware ADS-B
Sun 06:10:29 AM 51.3000 1.4970 112° Southeast 491 565 35,100  Level FlightAware ADS-B
Sun 06:11:04 AM 51.2670 1.6090 115° Southeast 492 566 35,100  Level FlightAware ADS-B
Sun 06:11:51 AM 51.2200 1.7690 115° Southeast 492 566 35,100 -74 Level FlightAware ADS-B
Sun 06:12:25 AM 51.1853 1.8848 115° Southeast 496 571 35,000  Descending FlightAware UK
Sun 06:12:35 AM 51.1780 1.9090 115° Southeast 492 566 35,100  Climbing FlightAware ADS-B
Sun 06:13:17 AM 51.1350 2.0500 116° Southeast 492 566 35,000  Descending FlightAware ADS-B
Sun 06:13:55 AM 51.0970 2.1770 115° Southeast 492 566 35,100  Climbing FlightAware ADS-B
Sun 06:14:37 AM 51.0553 2.3154 115° Southeast 494 568 35,000  Descending FlightAware UK
Sun 06:14:39 AM 51.0550 2.3130 115° Southeast 492 566 35,100  Climbing FlightAware ADS-B
Sun 06:15:31 AM 51.0017 2.4911 115° Southeast 496 571 35,000  Descending FlightAware UK
Sun 06:15:32 AM 51.0150 2.4440 115° Southeast 489 563 35,100  Climbing FlightAware ADS-B
Sun 06:16:20 AM 50.9550 2.6410 116° Southeast 491 565 35,000  Descending FlightAware ADS-B
Sun 06:17:00 AM 50.9130 2.7770 116° Southeast 491 565 35,100 71 Climbing FlightAware ADS-B
Sun 06:17:45 AM 50.8690 2.9160 117° Southeast 491 565 35,100  Level FlightAware ADS-B
Sun 06:18:24 AM 50.8290 3.0470 116° Southeast 491 565 35,100  Level FlightAware ADS-B
Sun 06:19:03 AM 50.7890 3.1720 116° Southeast 490 564 35,100 -140 Level FlightAware ADS-B
Sun 06:19:07 AM 50.7848 3.1881 116° Southeast 496 571 35,000  Descending FlightAware UK
Sun 06:19:47 AM 50.7460 3.3100 116° Southeast 489 563 35,100 70 Climbing FlightAware ADS-B
Sun 06:20:33 AM 50.7000 3.4530 117° Southeast 488 562 35,100  Level FlightAware ADS-B
Sun 06:21:07 AM 50.6660 3.5610 116° Southeast 488 562 35,100  Level FlightAware ADS-B
Sun 06:21:47 AM 50.6250 3.6880 117° Southeast 488 562 35,100  Level FlightAware ADS-B
Sun 06:22:29 AM 50.5810 3.8240 117° Southeast 487 560 35,100 -81 Level FlightAware ADS-B
Sun 06:23:01 AM 50.5468 3.9307 117° Southeast 494 568 35,000  Descending FlightAware UK
Sun 06:23:05 AM 50.5440 3.9370 117° Southeast 487 560 35,100 115 Climbing FlightAware ADS-B
Sun 06:23:53 AM 50.4970 4.0820 117° Southeast 486 559 35,100 -70 Level FlightAware ADS-B
Sun 06:24:31 AM 50.4551 4.2145 117° Southeast 1 1 35,000  Descending FlightAware UK
Sun 06:24:37 AM 50.4490 4.2260 117° Southeast 487 560 35,100 130 Climbing FlightAware ADS-B
Sun 06:25:17 AM 50.4080 4.3510 117° Southeast 486 559 35,100  Level FlightAware ADS-B
Sun 06:25:57 AM 50.3670 4.4760 117° Southeast 485 558 35,100  Level FlightAware ADS-B
Sun 06:26:41 AM 50.3220 4.6100 118° Southeast 485 558 35,100  Level FlightAware ADS-B
Sun 06:27:23 AM 50.2780 4.7400 118° Southeast 486 559 35,100  Level FlightAware ADS-B
Sun 06:28:05 AM 50.2350 4.8700 117° Southeast 485 558 35,100  Level FlightAware ADS-B
Sun 06:28:49 AM 50.1870 5.0130 118° Southeast 485 558 35,100 -71 Level FlightAware ADS-B
Sun 06:29:30 AM 50.1460 5.1330 118° Southeast 484 557 35,000  Descending FlightAware ADS-B
Sun 06:30:06 AM 50.1070 5.2470 118° Southeast 484 557 35,100 65 Climbing FlightAware ADS-B
Sun 06:31:02 AM 50.0480 5.4160 118° Southeast 485 558 35,100  Level FlightAware ADS-B
Sun 06:31:42 AM 50.0060 5.5380 118° Southeast 485 558 35,100  Level FlightAware ADS-B
Sun 06:32:22 AM 49.9670 5.6490 119° Southeast 485 558 35,100  Level FlightAware ADS-B
Sun 06:33:28 AM 49.8910 5.8680 118° Southeast 484 557 35,100  Level FlightAware ADS-B
Sun 06:34:10 AM 49.8480 5.9900 119° Southeast 484 557 35,100  Level FlightAware ADS-B
Sun 06:34:48 AM 49.8050 6.1110 119° Southeast 484 557 35,100  Level FlightAware ADS-B
Sun 06:35:32 AM 49.7580 6.2420 119° Southeast 484 557 35,100  Level FlightAware ADS-B
Sun 06:36:08 AM 49.7200 6.3510 118° Southeast 484 557 35,100  Level FlightAware ADS-B
Sun 06:36:53 AM 49.6710 6.4860 119° Southeast 483 556 35,100  Level FlightAware ADS-B
Sun 06:37:38 AM 49.6220 6.6250 119° Southeast 483 556 35,100  Level FlightAware ADS-B
Sun 06:38:18 AM 49.5780 6.7410 120° Southeast 483 556 35,100  Level FlightAware ADS-B
Sun 06:39:01 AM 49.5250 6.8650 123° Southeast 487 560 35,100  Level FlightAware ADS-B
Sun 06:39:42 AM 49.4710 6.9850 125° Southeast 487 560 35,100  Level FlightAware ADS-B
Sun 06:40:26 AM 49.4140 7.1050 126° Southeast 487 560 35,100 -71 Level FlightAware ADS-B
Sun 06:41:06 AM 49.3600 7.2170 126° Southeast 486 559 35,000  Descending FlightAware ADS-B
Sun 06:41:42 AM 49.3120 7.3200 126° Southeast 486 559 35,100 71 Climbing FlightAware ADS-B
Sun 06:42:31 AM 49.2500 7.4510 126° Southeast 487 560 35,100 -67 Level FlightAware ADS-B
Sun 06:43:11 AM 49.1940 7.5680 126° Southeast 486 559 35,000 -71 Descending FlightAware ADS-B
Sun 06:43:55 AM 49.1370 7.6870 126° Southeast 486 559 35,000  Level FlightAware ADS-B
Sun 06:44:36 AM 49.0860 7.7950 126° Southeast 488 562 35,000  Level FlightAware ADS-B
Sun 06:45:00 AM 49.0520 7.8640 127° Southeast 489 563 35,000  Level FlightAware ADS-B
Sun 06:46:03 AM 48.9670 8.0390 126° Southeast 491 565 35,000  Level FlightAware ADS-B
Sun 06:46:52 AM 48.9020 8.1720 127° Southeast 494 568 35,000 67 Level FlightAware ADS-B
Sun 06:47:32 AM 48.8440 8.2890 127° Southeast 489 563 35,100  Climbing FlightAware ADS-B
Sun 06:48:07 AM 48.7990 8.3800 127° Southeast 489 563 35,000  Descending FlightAware ADS-B
Sun 06:48:48 AM 48.7400 8.4990 127° Southeast 495 570 35,100 74 Climbing FlightAware ADS-B
Sun 06:49:28 AM 48.6850 8.6120 126° Southeast 493 567 35,100 -75 Level FlightAware ADS-B
Sun 06:50:08 AM 48.6300 8.7220 127° Southeast 491 565 35,000 -75 Descending FlightAware ADS-B
Sun 06:50:48 AM 48.5760 8.8310 127° Southeast 491 565 35,000  Level FlightAware ADS-B
Sun 06:51:28 AM 48.5220 8.9370 128° Southeast 491 565 35,000 75 Level FlightAware ADS-B
Sun 06:52:08 AM 48.4660 9.0480 127° Southeast 489 563 35,100 71 Climbing FlightAware ADS-B
Sun 06:52:53 AM 48.4080 9.1610 128° Southeast 488 562 35,100 -74 Level FlightAware ADS-B
Sun 06:53:29 AM 48.3730 9.2310 127° Southeast 485 558 35,000 -73 Descending FlightAware ADS-B
Sun 06:54:15 AM 48.3050 9.3650 127° Southeast 485 558 35,000 67 Level FlightAware ADS-B
Sun 06:54:58 AM 48.2420 9.4760 130° Southeast 490 564 35,100 78 Climbing FlightAware ADS-B
Sun 06:55:32 AM 48.1700 9.5720 138° Southeast 493 567 35,100 -75 Level FlightAware ADS-B
Sun 06:56:18 AM 48.0890 9.6690 141° Southeast 495 570 35,000 -71 Descending FlightAware ADS-B
Sun 06:56:57 AM 48.0120 9.7480 146° Southeast 502 578 35,000 80 Level FlightAware ADS-B
Sun 06:57:33 AM 47.9460 9.8150 146° Southeast 497 572 35,100  Climbing FlightAware ADS-B
Sun 06:58:17 AM 47.8640 9.9020 145° Southeast 495 570 35,000 -71 Descending FlightAware ADS-B
Sun 06:58:57 AM 47.7860 9.9840 145° Southeast 495 570 35,000  Level FlightAware ADS-B
Sun 06:59:42 AM 47.6980 10.0710 146° Southeast 504 580 35,000 71 Level FlightAware ADS-B
Sun 07:00:22 AM 47.6200 10.1510 145° Southeast 506 582 35,100 74 Climbing FlightAware ADS-B
Sun 07:01:03 AM 47.5420 10.2290 146° Southeast 507 583 35,100 -75 Level FlightAware ADS-B
Sun 07:01:42 AM 47.4700 10.3010 146° Southeast 508 585 35,000  Descending FlightAware ADS-B
Sun 07:02:22 AM 47.3850 10.3850 146° Southeast 510 587 35,100  Climbing FlightAware ADS-B
Sun 07:03:01 AM 47.3120 10.4580 146° Southeast 509 586 35,000 -72 Descending FlightAware ADS-B
Sun 07:03:45 AM 47.2230 10.5450 146° Southeast 510 587 35,000 76 Level FlightAware ADS-B
Sun 07:04:20 AM 47.1570 10.6110 146° Southeast 509 586 35,100  Climbing FlightAware ADS-B
Sun 07:04:59 AM 47.0770 10.6900 146° Southeast 508 585 35,000 -70 Descending FlightAware ADS-B
Sun 07:05:46 AM 46.9990 10.7780 142° Southeast 509 586 35,000  Level FlightAware ADS-B
Sun 07:06:26 AM 46.9280 10.8840 134° Southeast 509 586 35,000  Level FlightAware ADS-B
Sun 07:07:00 AM 46.8740 10.9700 133° Southeast 510 587 35,000 76 Level FlightAware ADS-B
Sun 07:07:45 AM 46.8040 11.0820 132° Southeast 512 589 35,100  Climbing FlightAware ADS-B
Sun 07:08:26 AM 46.7350 11.1900 133° Southeast 512 589 35,000  Descending FlightAware ADS-B
Sun 07:09:26 AM 46.6400 11.3360 133° Southeast 513 590 35,100  Climbing FlightAware ADS-B
Sun 07:10:11 AM 46.5680 11.4490 133° Southeast 514 592 35,000  Descending FlightAware ADS-B
Sun 07:10:47 AM 46.5060 11.5450 133° Southeast 513 590 35,100  Climbing FlightAware ADS-B
Sun 07:11:32 AM 46.4310 11.6570 134° Southeast 512 589 35,000 -71 Descending FlightAware ADS-B
Sun 07:12:12 AM 46.3670 11.7570 133° Southeast 511 588 35,000  Level FlightAware ADS-B
Sun 07:12:57 AM 46.2940 11.8680 134° Southeast 511 588 35,000  Level FlightAware ADS-B
Sun 07:13:42 AM 46.2210 11.9790 134° Southeast 513 590 35,000  Level FlightAware ADS-B
Sun 07:14:22 AM 46.1570 12.0760 134° Southeast 515 593 35,000  Level FlightAware ADS-B
Sun 07:15:02 AM 46.0900 12.1760 134° Southeast 517 595 35,000 73 Level FlightAware ADS-B
Sun 07:15:44 AM 46.0200 12.2820 134° Southeast 517 595 35,100  Climbing FlightAware ADS-B
Sun 07:16:24 AM 45.9540 12.3790 134° Southeast 512 589 35,000  Descending FlightAware ADS-B
Sun 07:17:04 AM 45.8900 12.4730 134° Southeast 513 590 35,100  Climbing FlightAware ADS-B
Sun 07:17:49 AM 45.8150 12.5870 133° Southeast 513 590 35,000  Descending FlightAware ADS-B
Sun 07:18:45 AM 45.7200 12.7250 135° Southeast 515 593 35,100  Climbing FlightAware ADS-B
Sun 07:19:25 AM 45.6530 12.8240 134° Southeast 517 595 35,000 -71 Descending FlightAware ADS-B
Sun 07:20:09 AM 45.5760 12.9380 134° Southeast 517 595 35,000  Level FlightAware ADS-B
Sun 07:20:50 AM 45.5080 13.0360 135° Southeast 519 597 35,000  Level FlightAware ADS-B
Sun 07:21:34 AM 45.4430 13.1610 127° Southeast 523 602 35,000 71 Level FlightAware ADS-B
Sun 07:22:15 AM 45.3880 13.2710 125° Southeast 527 606 35,100  Climbing FlightAware ADS-B
Sun 07:22:59 AM 45.3220 13.4000 126° Southeast 522 601 35,000  Descending FlightAware ADS-B
Sun 07:23:39 AM 45.2650 13.5050 128° Southeast 528 608 35,100  Climbing FlightAware ADS-B
Sun 07:24:20 AM 45.2080 13.6130 127° Southeast 529 609 35,000 -60 Descending FlightAware ADS-B
Sun 07:25:19 AM 45.1140 13.7830 128° Southeast 531 611 35,000  Level FlightAware ADS-B
Sun 07:25:59 AM 45.0550 13.8940 127° Southeast 533 613 35,000  Level FlightAware ADS-B
Sun 07:26:44 AM 44.9870 14.0210 127° Southeast 535 616 35,000 75 Level FlightAware ADS-B
Sun 07:27:19 AM 44.9360 14.1160 127° Southeast 538 619 35,100 67 Climbing FlightAware ADS-B
Sun 07:28:14 AM 44.8550 14.2680 127° Southeast 540 621 35,100  Level FlightAware ADS-B
Sun 07:28:54 AM 44.7950 14.3780 128° Southeast 540 621 35,100 -72 Level FlightAware ADS-B
Sun 07:29:37 AM 44.7290 14.5010 127° Southeast 540 621 35,000  Descending FlightAware ADS-B
Sun 07:30:05 AM 44.6900 14.5740 127° Southeast 540 621 35,100  Climbing FlightAware ADS-B
Sun 07:31:19 AM 44.5780 14.7850 127° Southeast 542 624 35,000 -53 Descending FlightAware ADS-B
Sun 07:31:59 AM 44.5210 14.8920 127° Southeast 542 624 35,000 59 Level FlightAware ADS-B
Sun 07:33:01 AM 44.4210 15.0770 127° Southeast 536 617 35,100  Climbing FlightAware ADS-B
Sun 07:33:51 AM 44.3450 15.2150 128° Southeast 536 617 35,000  Descending FlightAware ADS-B
Sun 07:34:41 AM 44.2710 15.3470 128° Southeast 536 617 35,100 66 Climbing FlightAware ADS-B
Sun 07:35:22 AM 44.2080 15.4600 128° Southeast 538 619 35,100  Level FlightAware ADS-B
Sun 07:36:01 AM 44.1450 15.5720 128° Southeast 538 619 35,100  Level FlightAware ADS-B
Sun 07:36:41 AM 44.0810 15.6850 128° Southeast 543 625 35,100 -70 Level FlightAware ADS-B
Sun 07:37:27 AM 44.0120 15.8090 128° Southeast 541 623 35,000  Descending FlightAware ADS-B
Sun 07:38:11 AM 43.9420 15.9310 129° Southeast 533 613 35,100 71 Climbing FlightAware ADS-B
Sun 07:38:51 AM 43.8810 16.0390 128° Southeast 531 611 35,100 -74 Level FlightAware ADS-B
Sun 07:39:32 AM 43.8210 16.1440 128° Southeast 530 610 35,000 -70 Descending FlightAware ADS-B
Sun 07:40:17 AM 43.7490 16.2670 129° Southeast 528 608 35,000  Level FlightAware ADS-B
Sun 07:40:57 AM 43.6950 16.3630 128° Southeast 527 606 35,000 75 Level FlightAware ADS-B
Sun 07:41:37 AM 43.6270 16.4800 129° Southeast 526 605 35,100  Climbing FlightAware ADS-B
Sun 07:42:17 AM 43.5660 16.5850 129° Southeast 525 604 35,000 -71 Descending FlightAware ADS-B
Sun 07:43:02 AM 43.4970 16.7040 129° Southeast 526 605 35,000 71 Level FlightAware ADS-B
Sun 07:43:42 AM 43.4410 16.8020 128° Southeast 528 608 35,100 81 Climbing FlightAware ADS-B
Sun 07:44:16 AM 43.3820 16.9000 130° Southeast 535 616 35,100  Level FlightAware ADS-B
Sun 07:44:56 AM 43.3180 17.0080 129° Southeast 538 619 35,100 -55 Level FlightAware ADS-B
Sun 07:46:06 AM 43.2100 17.1920 129° Southeast 541 623 35,000  Descending FlightAware ADS-B
Sun 07:46:45 AM 43.1480 17.2950 130° Southeast 541 623 35,100  Climbing FlightAware ADS-B
Sun 07:47:16 AM 43.1000 17.3780 128° Southeast 540 621 35,000 -83 Descending FlightAware ADS-B
Sun 07:47:57 AM 43.0370 17.4810 130° Southeast 540 621 35,000  Level FlightAware ADS-B
Sun 07:48:41 AM 42.9630 17.6050 129° Southeast 542 624 35,000 70 Level FlightAware ADS-B
Sun 07:49:23 AM 42.8970 17.7130 130° Southeast 544 626 35,100 72 Climbing FlightAware ADS-B
Sun 07:50:04 AM 42.8320 17.8220 129° Southeast 544 626 35,100  Level FlightAware ADS-B
Sun 07:50:38 AM 42.7750 17.9140 130° Southeast 543 625 35,100 -72 Level FlightAware ADS-B
Sun 07:51:27 AM 42.6980 18.0400 130° Southeast 543 625 35,000 -66 Descending FlightAware ADS-B
Sun 07:52:09 AM 42.6300 18.1530 129° Southeast 542 624 35,000  Level FlightAware ADS-B
Sun 07:52:51 AM 42.5600 18.2640 131° Southeast 541 623 35,000  Level FlightAware ADS-B
Sun 07:53:35 AM 42.4840 18.3710 134° Southeast 539 620 35,000  Level FlightAware ADS-B
Sun 07:54:15 AM 42.4130 18.4630 136° Southeast 540 621 35,000  Level FlightAware ADS-B
Sun 07:54:59 AM 42.3330 18.5680 136° Southeast 540 621 35,000  Level FlightAware ADS-B
Sun 07:55:39 AM 42.2600 18.6610 137° Southeast 541 623 35,000 71 Level FlightAware ADS-B
Sun 07:56:24 AM 42.1800 18.7630 137° Southeast 540 621 35,100 70 Climbing FlightAware ADS-B
Sun 07:57:05 AM 42.1040 18.8600 137° Southeast 539 620 35,100 -74 Level FlightAware ADS-B
Sun 07:57:45 AM 42.0310 18.9520 137° Southeast 537 618 35,000 -79 Descending FlightAware ADS-B
Sun 07:58:21 AM 41.9660 19.0340 137° Southeast 535 616 35,000 79 Level FlightAware ADS-B
Sun 07:59:01 AM 41.8950 19.1220 137° Southeast 534 615 35,100 71 Climbing FlightAware ADS-B
Sun 07:59:45 AM 41.8140 19.2240 137° Southeast 532 612 35,100 -115 Level FlightAware ADS-B
Sun 07:59:53 AM 41.8030 19.2370 139° Southeast 532 612 35,000 -83 Descending FlightAware ADS-B
Sun 08:00:57 AM 41.6860 19.3830 137° Southeast 529 609 35,000  Level FlightAware ADS-B
Sun 08:01:44 AM 41.6010 19.4900 137° Southeast 527 606 35,000  Level FlightAware ADS-B
Sun 08:02:26 AM 41.5300 19.5780 137° Southeast 527 606 35,000  Level FlightAware ADS-B
Sun 08:03:06 AM 41.4540 19.6710 137° Southeast 529 609 35,000  Level FlightAware ADS-B
Sun 08:03:50 AM 41.3760 19.7700 136° Southeast 533 613 35,000  Level FlightAware ADS-B
Sun 08:04:30 AM 41.3070 19.8620 135° Southeast 535 616 35,000 79 Level FlightAware ADS-B
Sun 08:05:06 AM 41.2470 19.9470 133° Southeast 536 617 35,100  Climbing FlightAware ADS-B
Sun 08:05:55 AM 41.1620 20.0600 135° Southeast 535 616 35,000  Descending FlightAware ADS-B
Sun 08:06:34 AM 41.0900 20.1550 135° Southeast 536 617 35,100  Climbing FlightAware ADS-B
Sun 08:07:16 AM 41.0190 20.2500 135° Southeast 535 616 35,000 -68 Descending FlightAware ADS-B
Sun 08:08:02 AM 40.9380 20.3570 135° Southeast 535 616 35,000  Level FlightAware ADS-B
Sun 08:08:42 AM 40.8740 20.4430 135° Southeast 536 617 35,000  Level FlightAware ADS-B
Sun 08:09:27 AM 40.7930 20.5470 136° Southeast 539 620 35,000  Level FlightAware ADS-B
Sun 08:10:00 AM 40.7320 20.6280 135° Southeast 540 621 35,000 72 Level FlightAware ADS-B
Sun 08:10:50 AM 40.6410 20.7470 135° Southeast 541 623 35,100  Climbing FlightAware ADS-B
Sun 08:11:40 AM 40.5650 20.8460 135° Southeast 540 621 35,000  Descending FlightAware ADS-B
Sun 08:12:20 AM 40.4790 20.9560 136° Southeast 539 620 35,100 71 Climbing FlightAware ADS-B
Sun 08:13:04 AM 40.3990 21.0490 138° Southeast 535 616 35,100 -71 Level FlightAware ADS-B
Sun 08:13:44 AM 40.3260 21.1370 137° Southeast 537 618 35,000 -79 Descending FlightAware ADS-B
Sun 08:14:20 AM 40.2590 21.2190 137° Southeast 537 618 35,000 75 Level FlightAware ADS-B
Sun 08:15:04 AM 40.1790 21.3140 138° Southeast 539 620 35,100  Climbing FlightAware ADS-B
Sun 08:15:44 AM 40.1040 21.4050 137° Southeast 540 621 35,000  Descending FlightAware ADS-B
Sun 08:16:24 AM 40.0320 21.4910 138° Southeast 542 624 35,100  Climbing FlightAware ADS-B
Sun 08:17:10 AM 39.9460 21.5940 137° Southeast 543 625 35,000  Descending FlightAware ADS-B
Sun 08:17:50 AM 39.8740 21.6780 138° Southeast 545 627 35,100 75 Climbing FlightAware ADS-B
Sun 08:18:30 AM 39.7970 21.7710 137° Southeast 545 627 35,100  Level FlightAware ADS-B
Sun 08:19:16 AM 39.7100 21.8720 138° Southeast 545 627 35,100 -70 Level FlightAware ADS-B
Sun 08:19:56 AM 39.6350 21.9600 138° Southeast 545 627 35,000 -71 Descending FlightAware ADS-B
Sun 08:20:40 AM 39.5540 22.0540 138° Southeast 545 627 35,000  Level FlightAware ADS-B
Sun 08:21:19 AM 39.4810 22.1390 138° Southeast 544 626 35,000 79 Level FlightAware ADS-B
Sun 08:21:56 AM 39.4120 22.2200 138° Southeast 543 625 35,100  Climbing FlightAware ADS-B
Sun 08:22:44 AM 39.3200 22.3260 138° Southeast 544 626 35,000  Descending FlightAware ADS-B
Sun 08:23:26 AM 39.2420 22.4150 139° Southeast 544 626 35,100  Climbing FlightAware ADS-B
Sun 08:24:04 AM 39.1740 22.4950 138° Southeast 543 625 35,000 -73 Descending FlightAware ADS-B
Sun 08:24:48 AM 39.0890 22.5940 138° Southeast 543 625 35,000  Level FlightAware ADS-B
Sun 08:25:30 AM 39.0170 22.6910 134° Southeast 547 629 35,000 77 Level FlightAware ADS-B
Sun 08:26:06 AM 38.9550 22.7810 132° Southeast 547 629 35,100  Climbing FlightAware ADS-B
Sun 08:26:50 AM 38.8830 22.8880 131° Southeast 546 628 35,000 -71 Descending FlightAware ADS-B
Sun 08:27:31 AM 38.8180 22.9860 130° Southeast 546 628 35,000 75 Level FlightAware ADS-B
Sun 08:28:10 AM 38.7520 23.0870 130° Southeast 544 626 35,100  Climbing FlightAware ADS-B
Sun 08:28:48 AM 38.7000 23.1660 130° Southeast 543 625 35,000 -74 Descending FlightAware ADS-B
Sun 08:29:31 AM 38.6220 23.2830 130° Southeast 542 624 35,000 73 Level FlightAware ADS-B
Sun 08:30:10 AM 38.5570 23.3780 131° Southeast 543 625 35,100  Climbing FlightAware ADS-B
Sun 08:30:54 AM 38.4870 23.4860 130° Southeast 543 625 35,000  Descending FlightAware ADS-B
Sun 08:31:32 AM 38.4260 23.5760 131° Southeast 543 625 35,100 61 Climbing FlightAware ADS-B
Sun 08:32:32 AM 38.3270 23.7220 131° Southeast 542 624 35,100 -63 Level FlightAware ADS-B
Sun 08:33:08 AM 38.2730 23.8020 131° Southeast 544 626 35,000  Descending FlightAware ADS-B
Sun 08:33:48 AM 38.2040 23.9030 131° Southeast 544 626 35,100  Climbing FlightAware ADS-B
Sun 08:34:28 AM 38.1390 24.0000 130° Southeast 544 626 35,000  Descending FlightAware ADS-B
Sun 08:35:06 AM 38.0740 24.0940 131° Southeast 543 625 35,100 77 Climbing FlightAware ADS-B
Sun 08:35:46 AM 38.0170 24.1780 131° Southeast 542 624 35,100 -61 Level FlightAware ADS-B
Sun 08:36:44 AM 37.9110 24.3340 131° Southeast 542 624 35,000 -64 Descending FlightAware ADS-B
Sun 08:37:20 AM 37.8520 24.4180 132° Southeast 541 623 35,000  Level FlightAware ADS-B
Sun 08:37:59 AM 37.7880 24.5110 131° Southeast 541 623 35,000  Level FlightAware ADS-B
Sun 08:38:44 AM 37.7140 24.6180 131° Southeast 539 620 35,000  Level FlightAware ADS-B
Sun 08:39:24 AM 37.6460 24.7140 132° Southeast 538 619 35,000  Level FlightAware ADS-B
Sun 08:40:04 AM 37.5820 24.8060 131° Southeast 537 618 35,000  Level FlightAware ADS-B
Sun 08:40:48 AM 37.5090 24.9120 131° Southeast 534 615 35,000  Level FlightAware ADS-B
Sun 08:41:30 AM 37.4430 25.0050 132° Southeast 531 611 35,000  Level FlightAware ADS-B
Sun 08:42:08 AM 37.3790 25.0970 131° Southeast 531 611 35,000  Level FlightAware ADS-B
Sun 08:42:48 AM 37.3160 25.1870 131° Southeast 530 610 35,000 74 Level FlightAware ADS-B
Sun 08:43:29 AM 37.2480 25.2810 132° Southeast 529 609 35,100  Climbing FlightAware ADS-B
Sun 08:44:10 AM 37.1800 25.3750 132° Southeast 529 609 35,000  Descending FlightAware ADS-B
Sun 08:44:54 AM 37.1080 25.4780 131° Southeast 529 609 35,100  Climbing FlightAware ADS-B
Sun 08:45:45 AM 37.0270 25.5930 131° Southeast 529 609 35,000 -70 Descending FlightAware ADS-B
Sun 08:46:20 AM 36.9680 25.6750 132° Southeast 529 609 35,000 76 Level FlightAware ADS-B
Sun 08:47:04 AM 36.9070 25.7840 125° Southeast 535 616 35,100  Climbing FlightAware ADS-B
Sun 08:47:44 AM 36.8540 25.8920 121° Southeast 535 616 35,000 -79 Descending FlightAware ADS-B
Sun 08:48:20 AM 36.8060 25.9850 123° Southeast 535 616 35,000  Level FlightAware ADS-B
Sun 08:49:00 AM 36.7490 26.0870 125° Southeast 535 616 35,000 71 Level FlightAware ADS-B
Sun 08:49:44 AM 36.6890 26.1960 124° Southeast 535 616 35,100  Climbing FlightAware ADS-B
Sun 08:50:24 AM 36.6330 26.2980 124° Southeast 535 616 35,000  Descending FlightAware ADS-B
Sun 08:51:08 AM 36.5720 26.4140 123° Southeast 538 619 35,100 71 Climbing FlightAware ADS-B
Sun 08:51:48 AM 36.5180 26.5180 123° Southeast 539 620 35,100 -71 Level FlightAware ADS-B
Sun 08:52:32 AM 36.4570 26.6320 124° Southeast 538 619 35,000 -71 Descending FlightAware ADS-B
Sun 08:53:13 AM 36.4020 26.7350 124° Southeast 537 618 35,000 70 Level FlightAware ADS-B
Sun 08:53:58 AM 36.3400 26.8530 123° Southeast 536 617 35,100  Climbing FlightAware ADS-B
Sun 08:54:51 AM 36.2690 26.9830 124° Southeast 534 615 35,000 -65 Descending FlightAware ADS-B
Sun 08:55:31 AM 36.2150 27.0850 123° Southeast 533 613 35,000  Level FlightAware ADS-B
Sun 08:56:11 AM 36.1690 27.1720 123° Southeast 533 613 35,000  Level FlightAware ADS-B
Sun 08:56:59 AM 36.1140 27.2770 123° Southeast 533 613 35,000 60 Level FlightAware ADS-B
Sun 08:57:51 AM 36.0290 27.4330 124° Southeast 529 609 35,100  Climbing FlightAware ADS-B
Sun 08:58:45 AM 35.9480 27.5790 124° Southeast 528 608 35,000  Descending FlightAware ADS-B
Sun 08:59:31 AM 35.8850 27.6950 124° Southeast 528 608 35,100  Climbing FlightAware ADS-B
Sun 09:00:52 AM 35.7940 27.8620 124° Southeast 528 608 35,000 -46 Descending FlightAware ADS-B
Sun 09:01:42 AM 35.7030 28.0270 124° Southeast 533 613 35,000  Level FlightAware ADS-B
Sun 09:02:30 AM 35.6370 28.1450 125° Southeast 533 613 35,000 68 Level FlightAware ADS-B
Sun 09:03:10 AM 35.5810 28.2480 124° Southeast 531 611 35,100  Climbing FlightAware ADS-B
Sun 09:03:48 AM 35.5280 28.3420 125° Southeast 529 609 35,000 -73 Descending FlightAware ADS-B
Sun 09:04:32 AM 35.4680 28.4490 125° Southeast 528 608 35,000  Level FlightAware ADS-B
Sun 09:05:06 AM 35.4220 28.5320 124° Southeast 528 608 35,000 81 Level FlightAware ADS-B
Sun 09:05:46 AM 35.3660 28.6310 125° Southeast 527 606 35,100  Climbing FlightAware ADS-B
Sun 09:06:30 AM 35.3050 28.7410 124° Southeast 526 605 35,000 -71 Descending FlightAware ADS-B
Sun 09:07:10 AM 35.2500 28.8370 125° Southeast 525 604 35,000  Level FlightAware ADS-B
Sun 09:07:55 AM 35.1930 28.9400 124° Southeast 521 600 35,000  Level FlightAware ADS-B
Sun 09:08:36 AM 35.1360 29.0400 125° Southeast 521 600 35,000  Level FlightAware ADS-B
Sun 09:09:15 AM 35.0780 29.1420 125° Southeast 522 601 35,000  Level FlightAware ADS-B
Sun 09:09:58 AM 35.0170 29.2470 125° Southeast 528 608 35,000  Level FlightAware ADS-B
Sun 09:10:34 AM 34.9680 29.3330 125° Southeast 530 610 35,000 103 Level FlightAware ADS-B
Sun 09:10:56 AM 34.9350 29.3920 124° Southeast 531 611 35,100  Climbing FlightAware ADS-B
Sun 09:12:02 AM 34.8450 29.5490 125° Southeast 532 612 35,000  Descending FlightAware ADS-B
Sun 09:12:52 AM 34.7860 29.6520 125° Southeast 532 612 35,100 71 Climbing FlightAware ADS-B
Sun 09:13:27 AM 34.7230 29.7580 126° Southeast 533 613 35,100 -67 Level FlightAware ADS-B
Sun 09:14:22 AM 34.6490 29.8870 125° Southeast 532 612 35,000 -38 Descending FlightAware ADS-B
Sun 09:16:04 AM 34.5260 30.1000 125° Southeast 532 612 35,000 41 Level FlightAware ADS-B
Sun 09:16:47 AM 34.4730 30.2450 114° Southeast 529 609 35,100  Climbing FlightAware ADS-B
Sun 09:17:32 AM 34.4100 30.3760 120° Southeast 527 606 35,000 -70 Descending FlightAware ADS-B
Sun 09:18:13 AM 34.3570 30.4860 120° Southeast 526 605 35,000 74 Level FlightAware ADS-B
Sun 09:18:53 AM 34.3060 30.5910 120° Southeast 524 603 35,100  Climbing FlightAware ADS-B
Sun 09:19:39 AM 34.2490 30.7080 120° Southeast 523 602 35,000 -69 Descending FlightAware ADS-B
Sun 09:20:20 AM 34.1990 30.8090 121° Southeast 521 600 35,000  Level FlightAware ADS-B
Sun 09:21:00 AM 34.1490 30.9100 121° Southeast 520 598 35,000  Level FlightAware ADS-B
Sun 09:21:45 AM 34.0940 31.0230 120° Southeast 520 598 35,000 75 Level FlightAware ADS-B
Sun 09:22:20 AM 34.0500 31.1140 120° Southeast 520 598 35,100  Climbing FlightAware ADS-B
Sun 09:23:00 AM 34.0010 31.2120 121° Southeast 521 600 35,000 -76 Descending FlightAware ADS-B
Sun 09:23:39 AM 33.9560 31.3050 120° Southeast 520 598 35,000 75 Level FlightAware ADS-B
Sun 09:24:20 AM 33.9010 31.4130 122° Southeast 520 598 35,100  Climbing FlightAware ADS-B
Sun 09:25:06 AM 33.8440 31.5280 121° Southeast 520 598 35,000  Descending FlightAware ADS-B
Sun 09:25:51 AM 33.7890 31.6410 120° Southeast 520 598 35,100 71 Climbing FlightAware ADS-B
Sun 09:26:31 AM 33.7380 31.7410 122° Southeast 521 600 35,100 -75 Level FlightAware ADS-B
Sun 09:27:11 AM 33.6870 31.8430 121° Southeast 526 605 35,000  Descending FlightAware ADS-B
Sun 09:27:49 AM 33.6430 31.9300 121° Southeast 526 605 35,100  Climbing FlightAware ADS-B
Sun 09:28:26 AM 33.5920 32.0300 121° Southeast 525 604 35,000  Descending FlightAware ADS-B
Sun 09:29:07 AM 33.5420 32.1300 121° Southeast 525 604 35,100  Climbing FlightAware ADS-B
Sun 09:29:46 AM 33.4920 32.2290 121° Southeast 524 603 35,000 -63 Descending FlightAware ADS-B
Sun 09:30:42 AM 33.4220 32.3680 121° Southeast 523 602 35,000  Level FlightAware ADS-B
Sun 09:31:17 AM 33.3790 32.4520 121° Southeast 523 602 35,000 75 Level FlightAware ADS-B
Sun 09:32:02 AM 33.3300 32.5470 122° Southeast 522 601 35,100 -222 Climbing FlightAware ADS-B
Sun 09:32:38 AM 33.2760 32.6510 122° Southeast 509 586 34,700 -741 Descending FlightAware ADS-B
Sun 09:33:23 AM 33.2250 32.7510 121° Southeast 499 574 34,100 -477 Descending FlightAware ADS-B
Sun 09:34:06 AM 33.1770 32.8480 121° Southeast 499 574 34,000 -1,200 Descending FlightAware ADS-B
Sun 09:34:58 AM 33.1110 32.9710 123° Southeast 470 541 32,200 -2,143 Descending FlightAware ADS-B
Sun 09:35:58 AM 33.0400 33.1090 122° Southeast 464 534 30,000 -1,515 Descending FlightAware ADS-B
Sun 09:36:37 AM 33.0020 33.1830 121° Southeast 460 529 29,700 -240 Descending FlightAware ADS-B
Sun 09:37:13 AM 32.9680 33.2490 122° Southeast 460 529 29,700 -3,000 Level FlightAware ADS-B
Sun 09:37:59 AM 32.9060 33.3650 122° Southeast 438 504 25,600 -3,786 Descending FlightAware ADS-B
Sun 09:38:37 AM 32.8670 33.4390 122° Southeast 427 491 24,400 -1,906 Descending FlightAware ADS-B
Sun 09:39:24 AM 32.8210 33.5270 122° Southeast 412 474 22,900 -1,931 Descending FlightAware ADS-B
Sun 09:40:04 AM 32.7790 33.6070 122° Southeast 397 457 21,600 -1,857 Descending FlightAware ADS-B
Sun 09:40:48 AM 32.7370 33.6870 122° Southeast 384 442 20,300 -1,840 Descending FlightAware ADS-B
Sun 09:41:19 AM 32.7070 33.7430 122° Southeast 376 433 19,300 -1,920 Descending FlightAware ADS-B
Sun 09:42:03 AM 32.6670 33.8180 122° Southeast 371 427 17,900 -1,953 Descending FlightAware ADS-B
Sun 09:42:45 AM 32.6280 33.8910 122° Southeast 366 421 16,500 -1,394 Descending FlightAware ADS-B
Sun 09:43:42 AM 32.5820 33.9800 122° Southeast 364 419 15,600 -514 Descending FlightAware ADS-B
Sun 09:44:30 AM 32.5470 34.0500 121° Southeast 364 419 15,600 -1,925 Level FlightAware ADS-B
Sun 09:45:28 AM 32.4860 34.1580 124° Southeast 356 410 12,200 -3,255 Descending FlightAware ADS-B
Sun 09:46:04 AM 32.4440 34.2090 134° Southeast 343 395 10,500 -1,519 Descending FlightAware ADS-B
Sun 09:46:47 AM 32.3960 34.2660 135° Southeast 305 351 10,200 -897 Descending FlightAware ADS-B
Sun 09:47:31 AM 32.3520 34.3170 136° Southeast 300 345 9,200 -1,200 Descending FlightAware ADS-B
Sun 09:47:47 AM 32.3370 34.3350 135° Southeast 294 338 9,000 -484 Descending FlightAware ADS-B
Sun 09:48:33 AM 32.2980 34.3810 135° Southeast 289 333 8,700 -832 Descending FlightAware ADS-B
Sun 09:49:28 AM 32.2510 34.4460 131° Southeast 277 319 7,600 -975 Descending FlightAware ADS-B
Sun 09:49:53 AM 32.2340 34.4750 125° Southeast 275 316 7,400 -537 Descending FlightAware ADS-B
Sun 09:50:35 AM 32.2060 34.5250 123° Southeast 274 315 7,000 -733 Descending FlightAware ADS-B
Sun 09:51:23 AM 32.1700 34.5870 124° Southeast 265 305 6,300 -585 Descending FlightAware ADS-B
Sun 09:51:57 AM 32.1480 34.6260 124° Southeast 266 306 6,200 -414 Descending FlightAware ADS-B
Sun 09:52:21 AM 32.1280 34.6590 126° Southeast 260 299 5,900 -750 Descending FlightAware ADS-B
Sun 09:52:45 AM 32.1150 34.6820 124° Southeast 252 290 5,600 -857 Descending FlightAware ADS-B
Sun 09:53:10 AM 32.0980 34.7110 125° Southeast 240 276 5,200 -436 Descending FlightAware ADS-B
Sun 09:53:40 AM 32.0780 34.7460 124° Southeast 238 274 5,200  Level FlightAware ADS-B
Sun 09:53:58 AM 32.0680 34.7640 123° Southeast 239 275 5,200 -143 Level FlightAware ADS-B
Sun 09:54:22 AM 32.0500 34.7860 134° Southeast 222 255 5,100 -231 Descending FlightAware ADS-B
Sun 09:54:50 AM 32.0310 34.8090 134° Southeast 209 241 5,000 -340 Descending FlightAware ADS-B
Sun 09:55:15 AM 32.0140 34.8290 135° Southeast 204 235 4,800 -558 Descending FlightAware ADS-B
Sun 09:55:33 AM 32.0010 34.8430 138° Southeast 207 238 4,600 -1,375 Descending FlightAware ADS-B
Sun 09:56:03 AM 31.9810 34.8660 136° Southeast 210 242 3,700 -1,556 Descending FlightAware ADS-B
Sun 09:56:27 AM 31.9730 34.8900 111° Southeast 185 213 3,200 -900 Descending FlightAware ADS-B
Sun 09:56:43 AM 31.9760 34.9070 78° East 181 208 3,100 -750 Descending FlightAware ADS-B
Sun 09:57:07 AM 31.9800 34.9280 77° East 178 205 2,700 -452 Descending FlightAware ADS-B
Sun 09:58:16 AM 32.0010 34.9790 64° Northeast 165 190 2,400 -261 Descending FlightAware ADS-B
Sun 10:00:00 AM 32.0095 34.8769 276° West  Level Estimated

Login

Don't have an account? Register now (free) for customized features, flight alerts, and more!